sensor_id;sensor_type;location;lat;lon;timestamp;pressure;altitude;pressure_sealevel;temperature;humidity
59168;BME280;44948;55.046;73.266;2022-08-06T00:00:49;100515.72;;;18.98;nan
59168;BME280;44948;55.046;73.266;2022-08-06T00:02:34;100470.72;;;18.71;nan
59168;BME280;44948;55.046;73.266;2022-08-06T00:04:17;100526.59;;;19.13;nan
59168;BME280;44948;55.046;73.266;2022-08-06T00:06:04;100518.28;;;19.08;nan
59168;BME280;44948;55.046;73.266;2022-08-06T00:07:55;100524.31;;;19.18;nan
59168;BME280;44948;55.046;73.266;2022-08-06T00:09:39;100393.69;;;18.27;nan
59168;BME280;44948;55.046;73.266;2022-08-06T00:11:24;100530.78;;;19.16;nan
59168;BME280;44948;55.046;73.266;2022-08-06T00:13:10;100427.00;;;18.47;nan
59168;BME280;44948;55.046;73.266;2022-08-06T00:14:53;100470.59;;;18.80;nan
59168;BME280;44948;55.046;73.266;2022-08-06T00:16:38;100402.91;;;18.41;nan
59168;BME280;44948;55.046;73.266;2022-08-06T00:18:29;100459.72;;;18.66;nan
59168;BME280;44948;55.046;73.266;2022-08-06T00:20:19;100527.97;;;19.17;nan
59168;BME280;44948;55.046;73.266;2022-08-06T00:22:01;100529.66;;;19.18;nan
59168;BME280;44948;55.046;73.266;2022-08-06T00:23:47;100507.44;;;19.01;nan
59168;BME280;44948;55.046;73.266;2022-08-06T00:25:40;100402.91;;;18.41;nan
59168;BME280;44948;55.046;73.266;2022-08-06T00:27:25;100397.13;;;18.45;nan
59168;BME280;44948;55.046;73.266;2022-08-06T00:29:18;100424.72;;;18.70;nan
59168;BME280;44948;55.046;73.266;2022-08-06T00:31:07;100525.75;;;19.38;nan
59168;BME280;44948;55.046;73.266;2022-08-06T00:32:52;100417.41;;;18.72;nan
59168;BME280;44948;55.046;73.266;2022-08-06T00:34:39;100530.50;;;19.53;nan
59168;BME280;44948;55.046;73.266;2022-08-06T00:36:28;100518.88;;;19.54;nan
59168;BME280;44948;55.046;73.266;2022-08-06T00:38:14;100426.97;;;18.91;nan
59168;BME280;44948;55.046;73.266;2022-08-06T00:40:02;100512.22;;;19.58;nan
59168;BME280;44948;55.046;73.266;2022-08-06T00:41:49;100463.41;;;19.33;nan
59168;BME280;44948;55.046;73.266;2022-08-06T00:43:34;100415.41;;;19.00;nan
59168;BME280;44948;55.046;73.266;2022-08-06T00:45:16;100442.19;;;19.15;nan
59168;BME280;44948;55.046;73.266;2022-08-06T00:47:02;100532.63;;;19.83;nan
59168;BME280;44948;55.046;73.266;2022-08-06T00:48:51;100533.44;;;19.84;nan
59168;BME280;44948;55.046;73.266;2022-08-06T00:50:36;100396.25;;;18.97;nan
59168;BME280;44948;55.046;73.266;2022-08-06T00:52:26;100427.09;;;19.16;nan
59168;BME280;44948;55.046;73.266;2022-08-06T00:54:14;100512.44;;;19.81;nan
59168;BME280;44948;55.046;73.266;2022-08-06T00:56:06;100523.63;;;19.92;nan
59168;BME280;44948;55.046;73.266;2022-08-06T00:57:55;100418.84;;;19.35;nan
59168;BME280;44948;55.046;73.266;2022-08-06T00:59:38;100541.22;;;19.77;nan
59168;BME280;44948;55.046;73.266;2022-08-06T01:01:24;100484.34;;;19.70;nan
59168;BME280;44948;55.046;73.266;2022-08-06T01:03:09;100547.63;;;20.09;nan
59168;BME280;44948;55.046;73.266;2022-08-06T01:05:03;100428.22;;;19.47;nan
59168;BME280;44948;55.046;73.266;2022-08-06T01:06:49;100485.38;;;19.85;nan
59168;BME280;44948;55.046;73.266;2022-08-06T01:08:40;100518.84;;;20.12;nan
59168;BME280;44948;55.046;73.266;2022-08-06T01:10:33;100441.72;;;19.62;nan
59168;BME280;44948;55.046;73.266;2022-08-06T01:12:31;100542.88;;;20.37;nan
59168;BME280;44948;55.046;73.266;2022-08-06T01:14:14;100558.69;;;20.46;nan
59168;BME280;44948;55.046;73.266;2022-08-06T01:18:35;100491.75;;;20.17;nan
59168;BME280;44948;55.046;73.266;2022-08-06T01:23:15;100550.03;;;20.60;nan
59168;BME280;44948;55.046;73.266;2022-08-06T01:27:42;100546.03;;;20.81;nan
59168;BME280;44948;55.046;73.266;2022-08-06T01:29:34;100546.00;;;20.97;nan
59168;BME280;44948;55.046;73.266;2022-08-06T01:31:31;100548.72;;;21.05;nan
59168;BME280;44948;55.046;73.266;2022-08-06T01:33:25;100547.03;;;21.12;nan
59168;BME280;44948;55.046;73.266;2022-08-06T01:35:16;100494.06;;;20.85;nan
59168;BME280;44948;55.046;73.266;2022-08-06T01:37:29;100547.38;;;21.17;nan
59168;BME280;44948;55.046;73.266;2022-08-06T01:39:22;100557.31;;;21.32;nan
59168;BME280;44948;55.046;73.266;2022-08-06T01:41:21;100546.63;;;21.40;nan
59168;BME280;44948;55.046;73.266;2022-08-06T01:43:34;100554.94;;;21.45;nan
59168;BME280;44948;55.046;73.266;2022-08-06T01:45:24;100552.91;;;21.55;nan
59168;BME280;44948;55.046;73.266;2022-08-06T01:47:16;100548.34;;;21.64;nan
59168;BME280;44948;55.046;73.266;2022-08-06T01:49:04;100463.84;;;21.09;nan
59168;BME280;44948;55.046;73.266;2022-08-06T01:50:53;100550.13;;;21.79;nan
59168;BME280;44948;55.046;73.266;2022-08-06T01:52:48;100432.69;;;21.09;nan
59168;BME280;44948;55.046;73.266;2022-08-06T01:54:47;100508.97;;;21.66;nan
59168;BME280;44948;55.046;73.266;2022-08-06T01:56:39;100555.03;;;21.99;nan
59168;BME280;44948;55.046;73.266;2022-08-06T02:00:45;100505.56;;;21.80;nan
59168;BME280;44948;55.046;73.266;2022-08-06T02:02:32;100554.44;;;22.20;nan
59168;BME280;44948;55.046;73.266;2022-08-06T02:04:21;100561.56;;;22.27;nan
59168;BME280;44948;55.046;73.266;2022-08-06T02:06:14;100511.97;;;22.02;nan
59168;BME280;44948;55.046;73.266;2022-08-06T02:08:06;100564.19;;;22.35;nan
59168;BME280;44948;55.046;73.266;2022-08-06T02:09:58;100457.75;;;21.70;nan
59168;BME280;44948;55.046;73.266;2022-08-06T02:11:50;100562.50;;;22.34;nan
59168;BME280;44948;55.046;73.266;2022-08-06T02:13:37;100453.41;;;21.69;nan
59168;BME280;44948;55.046;73.266;2022-08-06T02:15:30;100547.78;;;22.38;nan
59168;BME280;44948;55.046;73.266;2022-08-06T02:18:20;100494.25;;;22.01;nan
59168;BME280;44948;55.046;73.266;2022-08-06T02:19:49;100452.34;;;21.78;nan
59168;BME280;44948;55.046;73.266;2022-08-06T02:21:41;100446.34;;;21.76;nan
59168;BME280;44948;55.046;73.266;2022-08-06T02:23:28;100557.94;;;22.43;nan
59168;BME280;44948;55.046;73.266;2022-08-06T02:25:18;100564.59;;;22.47;nan
59168;BME280;44948;55.046;73.266;2022-08-06T02:27:09;100453.34;;;21.77;nan
59168;BME280;44948;55.046;73.266;2022-08-06T02:28:56;100562.63;;;22.64;nan
59168;BME280;44948;55.046;73.266;2022-08-06T02:30:52;100560.09;;;22.70;nan
59168;BME280;44948;55.046;73.266;2022-08-06T02:32:41;100553.00;;;22.78;nan
59168;BME280;44948;55.046;73.266;2022-08-06T02:34:29;100543.50;;;22.75;nan
59168;BME280;44948;55.046;73.266;2022-08-06T02:36:24;100557.28;;;22.87;nan
59168;BME280;44948;55.046;73.266;2022-08-06T02:38:17;100561.53;;;22.96;nan
59168;BME280;44948;55.046;73.266;2022-08-06T02:40:12;100513.72;;;22.78;nan
59168;BME280;44948;55.046;73.266;2022-08-06T02:42:09;100554.25;;;23.05;nan
59168;BME280;44948;55.046;73.266;2022-08-06T02:44:02;100469.44;;;22.61;nan
59168;BME280;44948;55.046;73.266;2022-08-06T02:46:00;100453.78;;;22.50;nan
59168;BME280;44948;55.046;73.266;2022-08-06T02:49:44;100462.25;;;22.61;nan
59168;BME280;44948;55.046;73.266;2022-08-06T02:51:39;100517.16;;;23.01;nan
59168;BME280;44948;55.046;73.266;2022-08-06T02:53:43;100523.44;;;23.09;nan
59168;BME280;44948;55.046;73.266;2022-08-06T02:55:37;100539.69;;;23.22;nan
59168;BME280;44948;55.046;73.266;2022-08-06T02:57:36;100546.56;;;23.39;nan
59168;BME280;44948;55.046;73.266;2022-08-06T02:59:35;100491.91;;;23.19;nan
59168;BME280;44948;55.046;73.266;2022-08-06T03:01:34;100522.16;;;23.34;nan
59168;BME280;44948;55.046;73.266;2022-08-06T03:03:31;100466.69;;;22.98;nan
59168;BME280;44948;55.046;73.266;2022-08-06T03:05:20;100546.44;;;23.62;nan
59168;BME280;44948;55.046;73.266;2022-08-06T03:07:06;100541.16;;;23.69;nan
59168;BME280;44948;55.046;73.266;2022-08-06T03:08:54;100475.09;;;23.25;nan
59168;BME280;44948;55.046;73.266;2022-08-06T03:13:13;100426.88;;;22.89;nan
59168;BME280;44948;55.046;73.266;2022-08-06T03:15:10;100548.53;;;23.67;nan
59168;BME280;44948;55.046;73.266;2022-08-06T03:17:46;100409.25;;;22.94;nan
59168;BME280;44948;55.046;73.266;2022-08-06T03:19:34;100495.69;;;23.54;nan
59168;BME280;44948;55.046;73.266;2022-08-06T03:21:38;100418.28;;;23.08;nan
59168;BME280;44948;55.046;73.266;2022-08-06T03:23:39;100449.75;;;23.36;nan
59168;BME280;44948;55.046;73.266;2022-08-06T03:25:51;100442.44;;;23.29;nan
59168;BME280;44948;55.046;73.266;2022-08-06T03:27:59;100543.06;;;24.04;nan
59168;BME280;44948;55.046;73.266;2022-08-06T03:29:50;100495.91;;;23.74;nan
59168;BME280;44948;55.046;73.266;2022-08-06T03:32:22;100536.31;;;23.94;nan
59168;BME280;44948;55.046;73.266;2022-08-06T03:34:36;100445.34;;;23.49;nan
59168;BME280;44948;55.046;73.266;2022-08-06T03:36:25;100465.81;;;23.72;nan
59168;BME280;44948;55.046;73.266;2022-08-06T03:38:51;100478.09;;;23.66;nan
59168;BME280;44948;55.046;73.266;2022-08-06T03:41:13;100515.34;;;23.82;nan
59168;BME280;44948;55.046;73.266;2022-08-06T03:43:12;100469.09;;;23.52;nan
59168;BME280;44948;55.046;73.266;2022-08-06T03:45:27;100404.53;;;23.11;nan
59168;BME280;44948;55.046;73.266;2022-08-06T03:47:51;100535.03;;;23.89;nan
59168;BME280;44948;55.046;73.266;2022-08-06T03:49:50;100441.53;;;23.37;nan
59168;BME280;44948;55.046;73.266;2022-08-06T03:51:59;100510.72;;;23.91;nan
59168;BME280;44948;55.046;73.266;2022-08-06T03:54:10;100412.09;;;23.37;nan
59168;BME280;44948;55.046;73.266;2022-08-06T03:56:14;100470.78;;;23.75;nan
59168;BME280;44948;55.046;73.266;2022-08-06T03:58:17;100435.72;;;23.70;nan
59168;BME280;44948;55.046;73.266;2022-08-06T04:01:02;100528.16;;;24.38;nan
59168;BME280;44948;55.046;73.266;2022-08-06T04:03:22;100431.44;;;23.75;nan
59168;BME280;44948;55.046;73.266;2022-08-06T04:05:40;100466.25;;;24.11;nan
59168;BME280;44948;55.046;73.266;2022-08-06T04:07:38;100505.28;;;24.42;nan
59168;BME280;44948;55.046;73.266;2022-08-06T04:09:47;100485.44;;;24.36;nan
59168;BME280;44948;55.046;73.266;2022-08-06T04:11:51;100423.69;;;24.02;nan
59168;BME280;44948;55.046;73.266;2022-08-06T04:13:51;100435.09;;;24.10;nan
59168;BME280;44948;55.046;73.266;2022-08-06T04:16:05;100448.13;;;24.13;nan
59168;BME280;44948;55.046;73.266;2022-08-06T04:18:23;100390.00;;;23.71;nan
59168;BME280;44948;55.046;73.266;2022-08-06T04:20:16;100492.00;;;24.55;nan
59168;BME280;44948;55.046;73.266;2022-08-06T04:22:11;100390.03;;;23.99;nan
59168;BME280;44948;55.046;73.266;2022-08-06T04:24:12;100433.50;;;24.37;nan
59168;BME280;44948;55.046;73.266;2022-08-06T04:26:30;100414.84;;;24.29;nan
59168;BME280;44948;55.046;73.266;2022-08-06T04:28:30;100421.03;;;24.30;nan
59168;BME280;44948;55.046;73.266;2022-08-06T04:30:29;100528.63;;;24.97;nan
59168;BME280;44948;55.046;73.266;2022-08-06T04:34:32;100452.06;;;24.17;nan
59168;BME280;44948;55.046;73.266;2022-08-06T04:36:23;100533.22;;;24.75;nan
59168;BME280;44948;55.046;73.266;2022-08-06T04:40:59;100464.72;;;24.24;nan
59168;BME280;44948;55.046;73.266;2022-08-06T04:43:05;100427.06;;;24.10;nan
59168;BME280;44948;55.046;73.266;2022-08-06T04:45:12;100525.22;;;24.82;nan
59168;BME280;44948;55.046;73.266;2022-08-06T04:47:54;100437.22;;;24.43;nan
59168;BME280;44948;55.046;73.266;2022-08-06T04:50:06;100419.00;;;24.32;nan
59168;BME280;44948;55.046;73.266;2022-08-06T04:52:28;100536.78;;;24.83;nan
59168;BME280;44948;55.046;73.266;2022-08-06T04:54:41;100438.03;;;24.37;nan
59168;BME280;44948;55.046;73.266;2022-08-06T04:56:38;100426.00;;;24.33;nan
59168;BME280;44948;55.046;73.266;2022-08-06T04:58:42;100413.63;;;24.32;nan
59168;BME280;44948;55.046;73.266;2022-08-06T05:00:35;100441.88;;;24.56;nan
59168;BME280;44948;55.046;73.266;2022-08-06T05:02:40;100429.91;;;24.58;nan
59168;BME280;44948;55.046;73.266;2022-08-06T05:04:35;100431.56;;;24.59;nan
59168;BME280;44948;55.046;73.266;2022-08-06T05:08:48;100526.41;;;25.35;nan
59168;BME280;44948;55.046;73.266;2022-08-06T05:10:51;100524.41;;;25.44;nan
59168;BME280;44948;55.046;73.266;2022-08-06T05:12:55;100531.22;;;25.47;nan
59168;BME280;44948;55.046;73.266;2022-08-06T05:16:51;100439.75;;;25.07;nan
59168;BME280;44948;55.046;73.266;2022-08-06T05:19:01;100516.81;;;25.61;nan
59168;BME280;44948;55.046;73.266;2022-08-06T05:20:55;100514.78;;;25.69;nan
59168;BME280;44948;55.046;73.266;2022-08-06T05:22:51;100495.13;;;25.62;nan
59168;BME280;44948;55.046;73.266;2022-08-06T05:24:46;100518.13;;;25.78;nan
59168;BME280;44948;55.046;73.266;2022-08-06T05:26:47;100403.84;;;25.15;nan
59168;BME280;44948;55.046;73.266;2022-08-06T05:28:56;100522.28;;;25.87;nan
59168;BME280;44948;55.046;73.266;2022-08-06T05:30:48;100462.69;;;25.57;nan
59168;BME280;44948;55.046;73.266;2022-08-06T05:32:51;100509.28;;;25.97;nan
59168;BME280;44948;55.046;73.266;2022-08-06T05:35:06;100349.66;;;24.91;nan
59168;BME280;44948;55.046;73.266;2022-08-06T05:36:52;100432.31;;;25.63;nan
59168;BME280;44948;55.046;73.266;2022-08-06T05:38:40;100412.69;;;25.56;nan
59168;BME280;44948;55.046;73.266;2022-08-06T05:40:37;100514.75;;;26.24;nan
59168;BME280;44948;55.046;73.266;2022-08-06T05:42:35;100377.13;;;25.48;nan
59168;BME280;44948;55.046;73.266;2022-08-06T05:44:32;100403.59;;;25.64;nan
59168;BME280;44948;55.046;73.266;2022-08-06T05:46:22;100413.97;;;25.80;nan
59168;BME280;44948;55.046;73.266;2022-08-06T05:48:19;100503.16;;;26.30;nan
59168;BME280;44948;55.046;73.266;2022-08-06T05:50:22;100461.53;;;25.99;nan
59168;BME280;44948;55.046;73.266;2022-08-06T05:54:33;100431.75;;;25.81;nan
59168;BME280;44948;55.046;73.266;2022-08-06T05:56:38;100500.47;;;26.37;nan
59168;BME280;44948;55.046;73.266;2022-08-06T05:58:39;100489.31;;;26.33;nan
59168;BME280;44948;55.046;73.266;2022-08-06T06:00:36;100440.91;;;26.07;nan
59168;BME280;44948;55.046;73.266;2022-08-06T06:02:48;100358.78;;;25.58;nan
59168;BME280;44948;55.046;73.266;2022-08-06T06:05:47;100363.91;;;25.53;nan
59168;BME280;44948;55.046;73.266;2022-08-06T06:08:05;100483.13;;;26.26;nan
59168;BME280;44948;55.046;73.266;2022-08-06T06:10:10;100415.66;;;25.94;nan
59168;BME280;44948;55.046;73.266;2022-08-06T06:12:04;100382.97;;;25.78;nan
59168;BME280;44948;55.046;73.266;2022-08-06T06:14:27;100385.88;;;25.76;nan
59168;BME280;44948;55.046;73.266;2022-08-06T06:19:34;100480.00;;;26.29;nan
59168;BME280;44948;55.046;73.266;2022-08-06T06:29:40;100366.00;;;25.64;nan
59168;BME280;44948;55.046;73.266;2022-08-06T06:32:01;100461.16;;;26.16;nan
59168;BME280;44948;55.046;73.266;2022-08-06T06:36:05;100469.81;;;25.91;nan
59168;BME280;44948;55.046;73.266;2022-08-06T06:41:23;100460.56;;;26.27;nan
59168;BME280;44948;55.046;73.266;2022-08-06T06:48:25;100406.56;;;26.35;nan
59168;BME280;44948;55.046;73.266;2022-08-06T06:50:25;100414.25;;;26.38;nan
59168;BME280;44948;55.046;73.266;2022-08-06T06:52:40;100452.91;;;26.57;nan
59168;BME280;44948;55.046;73.266;2022-08-06T06:55:05;100390.03;;;26.25;nan
59168;BME280;44948;55.046;73.266;2022-08-06T06:56:59;100449.59;;;26.75;nan
59168;BME280;44948;55.046;73.266;2022-08-06T06:59:07;100445.44;;;26.79;nan
59168;BME280;44948;55.046;73.266;2022-08-06T07:01:04;100444.59;;;26.85;nan
59168;BME280;44948;55.046;73.266;2022-08-06T07:02:57;100348.69;;;26.26;nan
59168;BME280;44948;55.046;73.266;2022-08-06T07:05:08;100338.97;;;26.25;nan
59168;BME280;44948;55.046;73.266;2022-08-06T07:07:25;100439.63;;;26.89;nan
59168;BME280;44948;55.046;73.266;2022-08-06T07:09:24;100435.47;;;26.86;nan
59168;BME280;44948;55.046;73.266;2022-08-06T07:11:22;100440.25;;;26.84;nan
59168;BME280;44948;55.046;73.266;2022-08-06T07:13:15;100347.44;;;26.15;nan
59168;BME280;44948;55.046;73.266;2022-08-06T07:15:07;100396.22;;;26.45;nan
59168;BME280;44948;55.046;73.266;2022-08-06T07:16:58;100376.38;;;26.40;nan
59168;BME280;44948;55.046;73.266;2022-08-06T07:18:52;100435.91;;;26.83;nan
59168;BME280;44948;55.046;73.266;2022-08-06T07:20:35;100329.25;;;26.24;nan
59168;BME280;44948;55.046;73.266;2022-08-06T07:22:36;100406.13;;;26.78;nan
59168;BME280;44948;55.046;73.266;2022-08-06T07:24:33;100353.22;;;26.39;nan
59168;BME280;44948;55.046;73.266;2022-08-06T07:26:27;100329.41;;;26.36;nan
59168;BME280;44948;55.046;73.266;2022-08-06T07:28:23;100432.53;;;27.07;nan
59168;BME280;44948;55.046;73.266;2022-08-06T07:30:16;100313.50;;;26.34;nan
59168;BME280;44948;55.046;73.266;2022-08-06T07:32:11;100364.53;;;26.74;nan
59168;BME280;44948;55.046;73.266;2022-08-06T07:34:09;100428.78;;;27.15;nan
59168;BME280;44948;55.046;73.266;2022-08-06T07:36:12;100383.25;;;27.00;nan
59168;BME280;44948;55.046;73.266;2022-08-06T07:38:06;100304.75;;;26.58;nan
59168;BME280;44948;55.046;73.266;2022-08-06T07:40:07;100342.75;;;26.82;nan
59168;BME280;44948;55.046;73.266;2022-08-06T07:44:07;100354.47;;;27.01;nan
59168;BME280;44948;55.046;73.266;2022-08-06T07:45:58;100425.97;;;26.90;nan
59168;BME280;44948;55.046;73.266;2022-08-06T07:48:12;100419.38;;;26.60;nan
59168;BME280;44948;55.046;73.266;2022-08-06T07:50:35;100314.78;;;26.12;nan
59168;BME280;44948;55.046;73.266;2022-08-06T07:52:31;100307.75;;;26.11;nan
59168;BME280;44948;55.046;73.266;2022-08-06T07:54:37;100389.38;;;26.63;nan
59168;BME280;44948;55.046;73.266;2022-08-06T07:56:33;100301.94;;;26.14;nan
59168;BME280;44948;55.046;73.266;2022-08-06T07:58:30;100259.78;;;25.94;nan
59168;BME280;44948;55.046;73.266;2022-08-06T08:00:24;100328.38;;;26.43;nan
59168;BME280;44948;55.046;73.266;2022-08-06T08:02:19;100330.41;;;26.54;nan
59168;BME280;44948;55.046;73.266;2022-08-06T08:04:10;100387.66;;;26.88;nan
59168;BME280;44948;55.046;73.266;2022-08-06T08:06:25;100299.41;;;26.45;nan
59168;BME280;44948;55.046;73.266;2022-08-06T08:08:19;100310.94;;;26.66;nan
59168;BME280;44948;55.046;73.266;2022-08-06T08:10:27;100361.78;;;26.94;nan
59168;BME280;44948;55.046;73.266;2022-08-06T08:12:21;100278.28;;;26.49;nan
59168;BME280;44948;55.046;73.266;2022-08-06T08:14:13;100321.06;;;26.77;nan
59168;BME280;44948;55.046;73.266;2022-08-06T08:18:33;100334.38;;;27.03;nan
59168;BME280;44948;55.046;73.266;2022-08-06T08:20:42;100365.63;;;27.11;nan
59168;BME280;44948;55.046;73.266;2022-08-06T08:22:40;100334.03;;;26.93;nan
59168;BME280;44948;55.046;73.266;2022-08-06T08:24:40;100315.50;;;26.58;nan
59168;BME280;44948;55.046;73.266;2022-08-06T08:26:34;100313.25;;;26.55;nan
59168;BME280;44948;55.046;73.266;2022-08-06T08:28:36;100384.09;;;27.01;nan
59168;BME280;44948;55.046;73.266;2022-08-06T08:30:37;100395.25;;;27.11;nan
59168;BME280;44948;55.046;73.266;2022-08-06T08:32:25;100284.09;;;26.46;nan
59168;BME280;44948;55.046;73.266;2022-08-06T08:34:31;100364.69;;;26.92;nan
59168;BME280;44948;55.046;73.266;2022-08-06T08:36:41;100269.63;;;26.34;nan
59168;BME280;44948;55.046;73.266;2022-08-06T08:38:51;100331.22;;;26.62;nan
59168;BME280;44948;55.046;73.266;2022-08-06T08:40:49;100284.94;;;26.40;nan
59168;BME280;44948;55.046;73.266;2022-08-06T08:42:48;100392.94;;;27.14;nan
59168;BME280;44948;55.046;73.266;2022-08-06T08:47:44;100304.16;;;26.43;nan
59168;BME280;44948;55.046;73.266;2022-08-06T08:49:46;100323.56;;;26.52;nan
59168;BME280;44948;55.046;73.266;2022-08-06T08:51:42;100280.63;;;26.32;nan
59168;BME280;44948;55.046;73.266;2022-08-06T08:53:54;100402.06;;;27.13;nan
59168;BME280;44948;55.046;73.266;2022-08-06T08:55:48;100291.09;;;26.53;nan
59168;BME280;44948;55.046;73.266;2022-08-06T08:57:49;100394.56;;;27.29;nan
59168;BME280;44948;55.046;73.266;2022-08-06T08:59:55;100392.66;;;27.36;nan
59168;BME280;44948;55.046;73.266;2022-08-06T09:02:00;100344.47;;;27.14;nan
59168;BME280;44948;55.046;73.266;2022-08-06T09:03:51;100304.84;;;26.90;nan
59168;BME280;44948;55.046;73.266;2022-08-06T09:06:06;100238.31;;;26.59;nan
59168;BME280;44948;55.046;73.266;2022-08-06T09:07:51;100380.75;;;27.12;nan
59168;BME280;44948;55.046;73.266;2022-08-06T09:09:41;100386.59;;;27.47;nan
59168;BME280;44948;55.046;73.266;2022-08-06T09:11:44;100386.97;;;27.57;nan
59168;BME280;44948;55.046;73.266;2022-08-06T09:13:47;100306.41;;;27.11;nan
59168;BME280;44948;55.046;73.266;2022-08-06T09:15:40;100362.72;;;27.57;nan
59168;BME280;44948;55.046;73.266;2022-08-06T09:17:37;100254.94;;;26.94;nan
59168;BME280;44948;55.046;73.266;2022-08-06T09:19:28;100343.28;;;27.49;nan
59168;BME280;44948;55.046;73.266;2022-08-06T09:21:27;100378.81;;;27.32;nan
59168;BME280;44948;55.046;73.266;2022-08-06T09:23:26;100275.59;;;27.00;nan
59168;BME280;44948;55.046;73.266;2022-08-06T09:25:42;100371.72;;;27.69;nan
59168;BME280;44948;55.046;73.266;2022-08-06T09:28:05;100279.44;;;27.17;nan
59168;BME280;44948;55.046;73.266;2022-08-06T09:30:08;100336.09;;;27.67;nan
59168;BME280;44948;55.046;73.266;2022-08-06T09:32:07;100266.75;;;27.25;nan
59168;BME280;44948;55.046;73.266;2022-08-06T09:34:14;100303.47;;;27.51;nan
59168;BME280;44948;55.046;73.266;2022-08-06T09:36:12;100301.59;;;27.51;nan
59168;BME280;44948;55.046;73.266;2022-08-06T09:38:19;100254.59;;;27.15;nan
59168;BME280;44948;55.046;73.266;2022-08-06T09:40:25;100361.69;;;27.90;nan
59168;BME280;44948;55.046;73.266;2022-08-06T09:42:37;100266.03;;;27.42;nan
59168;BME280;44948;55.046;73.266;2022-08-06T09:44:32;100318.19;;;27.80;nan
59168;BME280;44948;55.046;73.266;2022-08-06T09:46:43;100309.34;;;27.72;nan
59168;BME280;44948;55.046;73.266;2022-08-06T09:48:29;100218.72;;;27.22;nan
59168;BME280;44948;55.046;73.266;2022-08-06T09:50:45;100244.16;;;27.32;nan
59168;BME280;44948;55.046;73.266;2022-08-06T09:52:41;100345.09;;;28.11;nan
59168;BME280;44948;55.046;73.266;2022-08-06T09:54:26;100348.72;;;27.73;nan
59168;BME280;44948;55.046;73.266;2022-08-06T09:57:04;100202.91;;;27.07;nan
59168;BME280;44948;55.046;73.266;2022-08-06T09:59:08;100266.41;;;27.71;nan
59168;BME280;44948;55.046;73.266;2022-08-06T10:01:37;100339.94;;;28.10;nan
59168;BME280;44948;55.046;73.266;2022-08-06T10:03:48;100240.44;;;27.58;nan
59168;BME280;44948;55.046;73.266;2022-08-06T10:05:33;100249.41;;;27.70;nan
59168;BME280;44948;55.046;73.266;2022-08-06T10:09:57;100333.13;;;28.25;nan
59168;BME280;44948;55.046;73.266;2022-08-06T10:12:20;100160.72;;;27.26;nan
59168;BME280;44948;55.046;73.266;2022-08-06T10:14:39;100337.97;;;28.42;nan
59168;BME280;44948;55.046;73.266;2022-08-06T10:16:27;100235.00;;;27.90;nan
59168;BME280;44948;55.046;73.266;2022-08-06T10:18:40;100276.41;;;28.14;nan
59168;BME280;44948;55.046;73.266;2022-08-06T10:20:38;100190.06;;;27.59;nan
59168;BME280;44948;55.046;73.266;2022-08-06T10:22:56;100297.63;;;28.10;nan
59168;BME280;44948;55.046;73.266;2022-08-06T10:24:46;100259.41;;;27.95;nan
59168;BME280;44948;55.046;73.266;2022-08-06T10:26:40;100215.88;;;27.66;nan
59168;BME280;44948;55.046;73.266;2022-08-06T10:28:33;100188.53;;;27.44;nan
59168;BME280;44948;55.046;73.266;2022-08-06T10:30:31;100133.22;;;27.17;nan
59168;BME280;44948;55.046;73.266;2022-08-06T10:34:37;100123.56;;;27.09;nan
59168;BME280;44948;55.046;73.266;2022-08-06T10:37:07;100215.50;;;27.63;nan
59168;BME280;44948;55.046;73.266;2022-08-06T10:38:55;100183.38;;;27.43;nan
59168;BME280;44948;55.046;73.266;2022-08-06T10:41:14;100194.91;;;27.50;nan
59168;BME280;44948;55.046;73.266;2022-08-06T10:43:03;100256.25;;;27.98;nan
59168;BME280;44948;55.046;73.266;2022-08-06T10:45:08;100207.09;;;27.77;nan
59168;BME280;44948;55.046;73.266;2022-08-06T10:47:19;100236.88;;;27.83;nan
59168;BME280;44948;55.046;73.266;2022-08-06T10:49:05;100185.31;;;27.54;nan
59168;BME280;44948;55.046;73.266;2022-08-06T10:51:36;100168.16;;;27.30;nan
59168;BME280;44948;55.046;73.266;2022-08-06T10:53:26;100240.41;;;27.83;nan
59168;BME280;44948;55.046;73.266;2022-08-06T10:55:19;100315.00;;;28.32;nan
59168;BME280;44948;55.046;73.266;2022-08-06T10:57:28;100267.03;;;27.98;nan
59168;BME280;44948;55.046;73.266;2022-08-06T10:59:24;100201.94;;;27.51;nan
59168;BME280;44948;55.046;73.266;2022-08-06T11:09:17;100278.53;;;27.87;nan
59168;BME280;44948;55.046;73.266;2022-08-06T11:13:37;100297.28;;;28.00;nan
59168;BME280;44948;55.046;73.266;2022-08-06T11:15:46;100069.16;;;26.44;nan
59168;BME280;44948;55.046;73.266;2022-08-06T11:17:53;100263.63;;;27.59;nan
59168;BME280;44948;55.046;73.266;2022-08-06T11:19:45;100189.75;;;27.17;nan
59168;BME280;44948;55.046;73.266;2022-08-06T11:21:47;100170.38;;;27.08;nan
59168;BME280;44948;55.046;73.266;2022-08-06T11:23:34;100195.31;;;27.22;nan
59168;BME280;44948;55.046;73.266;2022-08-06T11:25:41;100248.66;;;27.63;nan
59168;BME280;44948;55.046;73.266;2022-08-06T11:30:13;100284.63;;;27.75;nan
59168;BME280;44948;55.046;73.266;2022-08-06T11:32:07;100248.06;;;27.61;nan
59168;BME280;44948;55.046;73.266;2022-08-06T11:34:20;100128.69;;;26.86;nan
59168;BME280;44948;55.046;73.266;2022-08-06T11:36:42;100251.63;;;27.55;nan
59168;BME280;44948;55.046;73.266;2022-08-06T11:40:58;100280.56;;;27.66;nan
59168;BME280;44948;55.046;73.266;2022-08-06T11:42:57;100233.06;;;27.47;nan
59168;BME280;44948;55.046;73.266;2022-08-06T11:45:09;100248.00;;;27.43;nan
59168;BME280;44948;55.046;73.266;2022-08-06T11:47:19;100151.94;;;26.80;nan